sensor_id;sensor_type;location;lat;lon;timestamp;P1;durP1;ratioP1;P2;durP2;ratioP2
68806;SDS011;55800;54.272;18.558;2022-09-29T00:01:44;22.45;;;14.98;;
68806;SDS011;55800;54.272;18.558;2022-09-29T00:04:14;23.88;;;13.32;;
68806;SDS011;55800;54.272;18.558;2022-09-29T00:06:43;21.90;;;14.45;;
68806;SDS011;55800;54.272;18.558;2022-09-29T00:09:13;26.33;;;14.30;;
68806;SDS011;55800;54.272;18.558;2022-09-29T00:11:42;22.10;;;13.52;;
68806;SDS011;55800;54.272;18.558;2022-09-29T00:14:12;23.50;;;14.45;;
68806;SDS011;55800;54.272;18.558;2022-09-29T00:19:10;22.50;;;12.25;;
68806;SDS011;55800;54.272;18.558;2022-09-29T00:21:40;21.48;;;12.82;;
68806;SDS011;55800;54.272;18.558;2022-09-29T00:24:09;21.92;;;11.85;;
68806;SDS011;55800;54.272;18.558;2022-09-29T00:26:40;20.30;;;10.40;;
68806;SDS011;55800;54.272;18.558;2022-09-29T00:29:12;16.80;;;11.30;;
68806;SDS011;55800;54.272;18.558;2022-09-29T00:31:41;18.80;;;10.38;;
68806;SDS011;55800;54.272;18.558;2022-09-29T00:34:10;16.33;;;9.80;;
68806;SDS011;55800;54.272;18.558;2022-09-29T00:36:40;17.48;;;10.38;;
68806;SDS011;55800;54.272;18.558;2022-09-29T00:39:09;16.50;;;9.63;;
68806;SDS011;55800;54.272;18.558;2022-09-29T00:41:40;14.20;;;9.48;;
68806;SDS011;55800;54.272;18.558;2022-09-29T00:47:13;16.58;;;10.52;;
68806;SDS011;55800;54.272;18.558;2022-09-29T00:49:46;17.67;;;11.32;;
68806;SDS011;55800;54.272;18.558;2022-09-29T00:52:20;17.25;;;10.13;;
68806;SDS011;55800;54.272;18.558;2022-09-29T00:54:54;25.83;;;13.00;;
68806;SDS011;55800;54.272;18.558;2022-09-29T00:57:29;20.42;;;11.27;;
68806;SDS011;55800;54.272;18.558;2022-09-29T01:00:03;23.50;;;11.88;;
68806;SDS011;55800;54.272;18.558;2022-09-29T01:02:36;18.30;;;10.93;;
68806;SDS011;55800;54.272;18.558;2022-09-29T01:05:09;17.73;;;10.70;;
68806;SDS011;55800;54.272;18.558;2022-09-29T01:07:41;22.58;;;12.75;;
68806;SDS011;55800;54.272;18.558;2022-09-29T01:10:12;18.30;;;11.13;;
68806;SDS011;55800;54.272;18.558;2022-09-29T01:12:46;17.45;;;9.80;;
68806;SDS011;55800;54.272;18.558;2022-09-29T01:15:17;14.07;;;9.00;;
68806;SDS011;55800;54.272;18.558;2022-09-29T01:17:47;16.52;;;9.52;;
68806;SDS011;55800;54.272;18.558;2022-09-29T01:20:17;16.92;;;9.55;;
68806;SDS011;55800;54.272;18.558;2022-09-29T01:22:57;17.77;;;9.85;;
68806;SDS011;55800;54.272;18.558;2022-09-29T01:26:06;16.88;;;9.40;;
68806;SDS011;55800;54.272;18.558;2022-09-29T01:32:25;14.95;;;8.15;;
68806;SDS011;55800;54.272;18.558;2022-09-29T01:35:05;14.38;;;8.15;;
68806;SDS011;55800;54.272;18.558;2022-09-29T01:37:43;14.70;;;7.68;;
68806;SDS011;55800;54.272;18.558;2022-09-29T01:40:22;11.90;;;7.93;;
68806;SDS011;55800;54.272;18.558;2022-09-29T01:42:59;14.82;;;7.57;;
68806;SDS011;55800;54.272;18.558;2022-09-29T01:45:33;14.00;;;8.07;;
68806;SDS011;55800;54.272;18.558;2022-09-29T01:48:08;12.93;;;7.50;;
68806;SDS011;55800;54.272;18.558;2022-09-29T01:50:41;14.07;;;7.85;;
68806;SDS011;55800;54.272;18.558;2022-09-29T01:53:14;11.15;;;7.30;;
68806;SDS011;55800;54.272;18.558;2022-09-29T01:55:47;11.40;;;7.35;;
68806;SDS011;55800;54.272;18.558;2022-09-29T01:58:21;13.63;;;8.27;;
68806;SDS011;55800;54.272;18.558;2022-09-29T02:00:56;12.50;;;7.70;;
68806;SDS011;55800;54.272;18.558;2022-09-29T02:03:33;11.98;;;6.70;;
68806;SDS011;55800;54.272;18.558;2022-09-29T02:06:06;11.75;;;7.72;;
68806;SDS011;55800;54.272;18.558;2022-09-29T02:08:41;13.52;;;8.25;;
68806;SDS011;55800;54.272;18.558;2022-09-29T02:11:16;12.60;;;7.63;;
68806;SDS011;55800;54.272;18.558;2022-09-29T02:13:46;16.95;;;9.35;;
68806;SDS011;55800;54.272;18.558;2022-09-29T02:16:20;15.25;;;9.40;;
68806;SDS011;55800;54.272;18.558;2022-09-29T02:18:56;13.98;;;9.85;;
68806;SDS011;55800;54.272;18.558;2022-09-29T02:21:29;13.35;;;9.25;;
68806;SDS011;55800;54.272;18.558;2022-09-29T02:24:00;13.82;;;8.43;;
68806;SDS011;55800;54.272;18.558;2022-09-29T02:26:30;25.70;;;14.02;;
68806;SDS011;55800;54.272;18.558;2022-09-29T02:29:02;19.90;;;12.00;;
68806;SDS011;55800;54.272;18.558;2022-09-29T02:31:32;23.35;;;12.68;;
68806;SDS011;55800;54.272;18.558;2022-09-29T02:34:04;20.02;;;10.40;;
68806;SDS011;55800;54.272;18.558;2022-09-29T02:36:38;13.75;;;8.35;;
68806;SDS011;55800;54.272;18.558;2022-09-29T02:39:18;14.93;;;9.50;;
68806;SDS011;55800;54.272;18.558;2022-09-29T02:42:01;15.48;;;8.85;;
68806;SDS011;55800;54.272;18.558;2022-09-29T02:44:46;13.60;;;9.27;;
68806;SDS011;55800;54.272;18.558;2022-09-29T02:47:34;15.38;;;7.50;;
68806;SDS011;55800;54.272;18.558;2022-09-29T02:50:28;13.65;;;8.63;;
68806;SDS011;55800;54.272;18.558;2022-09-29T02:53:16;12.00;;;6.78;;
68806;SDS011;55800;54.272;18.558;2022-09-29T02:55:56;12.40;;;7.38;;
68806;SDS011;55800;54.272;18.558;2022-09-29T02:58:33;13.10;;;8.10;;
68806;SDS011;55800;54.272;18.558;2022-09-29T03:01:10;16.25;;;7.70;;
68806;SDS011;55800;54.272;18.558;2022-09-29T03:03:42;14.30;;;7.85;;
68806;SDS011;55800;54.272;18.558;2022-09-29T03:06:13;12.68;;;8.45;;
68806;SDS011;55800;54.272;18.558;2022-09-29T03:08:45;14.57;;;8.88;;
68806;SDS011;55800;54.272;18.558;2022-09-29T03:11:14;13.75;;;8.45;;
68806;SDS011;55800;54.272;18.558;2022-09-29T03:13:43;11.57;;;7.78;;
68806;SDS011;55800;54.272;18.558;2022-09-29T03:16:12;15.23;;;8.68;;
68806;SDS011;55800;54.272;18.558;2022-09-29T03:18:41;12.90;;;8.38;;
68806;SDS011;55800;54.272;18.558;2022-09-29T03:21:10;17.38;;;10.35;;
68806;SDS011;55800;54.272;18.558;2022-09-29T03:23:41;13.10;;;8.65;;
68806;SDS011;55800;54.272;18.558;2022-09-29T03:26:10;14.07;;;8.48;;
68806;SDS011;55800;54.272;18.558;2022-09-29T03:28:39;17.05;;;8.48;;
68806;SDS011;55800;54.272;18.558;2022-09-29T03:31:08;15.05;;;8.90;;
68806;SDS011;55800;54.272;18.558;2022-09-29T03:33:38;14.70;;;9.27;;
68806;SDS011;55800;54.272;18.558;2022-09-29T03:36:07;15.82;;;8.98;;
68806;SDS011;55800;54.272;18.558;2022-09-29T03:41:07;16.70;;;8.75;;
68806;SDS011;55800;54.272;18.558;2022-09-29T03:43:36;17.08;;;9.27;;
68806;SDS011;55800;54.272;18.558;2022-09-29T03:46:05;10.60;;;7.10;;
68806;SDS011;55800;54.272;18.558;2022-09-29T03:48:35;13.05;;;6.50;;
68806;SDS011;55800;54.272;18.558;2022-09-29T03:53:34;11.52;;;6.53;;
68806;SDS011;55800;54.272;18.558;2022-09-29T03:58:34;10.10;;;6.25;;
68806;SDS011;55800;54.272;18.558;2022-09-29T04:01:03;10.50;;;6.60;;
68806;SDS011;55800;54.272;18.558;2022-09-29T04:06:02;11.43;;;6.40;;
68806;SDS011;55800;54.272;18.558;2022-09-29T04:08:31;12.68;;;7.15;;
68806;SDS011;55800;54.272;18.558;2022-09-29T04:11:02;12.57;;;7.40;;
68806;SDS011;55800;54.272;18.558;2022-09-29T04:13:34;11.85;;;7.93;;
68806;SDS011;55800;54.272;18.558;2022-09-29T04:16:03;10.30;;;6.80;;
68806;SDS011;55800;54.272;18.558;2022-09-29T04:18:33;14.95;;;7.30;;
68806;SDS011;55800;54.272;18.558;2022-09-29T04:21:04;10.85;;;7.18;;
68806;SDS011;55800;54.272;18.558;2022-09-29T04:23:34;12.18;;;7.07;;
68806;SDS011;55800;54.272;18.558;2022-09-29T04:28:34;9.25;;;5.75;;
68806;SDS011;55800;54.272;18.558;2022-09-29T04:31:04;11.88;;;6.05;;
68806;SDS011;55800;54.272;18.558;2022-09-29T04:36:05;9.48;;;5.72;;
68806;SDS011;55800;54.272;18.558;2022-09-29T04:38:34;8.45;;;5.68;;
68806;SDS011;55800;54.272;18.558;2022-09-29T04:41:03;8.60;;;5.68;;
68806;SDS011;55800;54.272;18.558;2022-09-29T04:43:34;11.25;;;6.47;;
68806;SDS011;55800;54.272;18.558;2022-09-29T04:46:03;10.27;;;5.97;;
68806;SDS011;55800;54.272;18.558;2022-09-29T04:48:34;9.98;;;6.80;;
68806;SDS011;55800;54.272;18.558;2022-09-29T04:51:03;9.95;;;5.50;;
68806;SDS011;55800;54.272;18.558;2022-09-29T04:53:33;12.95;;;6.40;;
68806;SDS011;55800;54.272;18.558;2022-09-29T04:56:03;9.77;;;6.07;;
68806;SDS011;55800;54.272;18.558;2022-09-29T04:58:35;11.00;;;6.43;;
68806;SDS011;55800;54.272;18.558;2022-09-29T05:01:05;12.07;;;8.05;;
68806;SDS011;55800;54.272;18.558;2022-09-29T05:03:36;12.20;;;7.43;;
68806;SDS011;55800;54.272;18.558;2022-09-29T05:06:05;10.70;;;6.90;;
68806;SDS011;55800;54.272;18.558;2022-09-29T05:08:35;9.68;;;6.68;;
68806;SDS011;55800;54.272;18.558;2022-09-29T05:11:04;10.75;;;5.38;;
68806;SDS011;55800;54.272;18.558;2022-09-29T05:13:36;8.23;;;5.90;;
68806;SDS011;55800;54.272;18.558;2022-09-29T05:16:05;11.25;;;6.70;;
68806;SDS011;55800;54.272;18.558;2022-09-29T05:18:35;12.07;;;6.95;;
68806;SDS011;55800;54.272;18.558;2022-09-29T05:21:04;15.23;;;7.30;;
68806;SDS011;55800;54.272;18.558;2022-09-29T05:23:54;9.93;;;6.90;;
68806;SDS011;55800;54.272;18.558;2022-09-29T05:26:23;13.20;;;6.57;;
68806;SDS011;55800;54.272;18.558;2022-09-29T05:28:53;13.10;;;6.80;;
68806;SDS011;55800;54.272;18.558;2022-09-29T05:31:23;11.15;;;6.60;;
68806;SDS011;55800;54.272;18.558;2022-09-29T05:33:53;10.77;;;6.85;;
68806;SDS011;55800;54.272;18.558;2022-09-29T05:36:23;11.85;;;7.82;;
68806;SDS011;55800;54.272;18.558;2022-09-29T05:38:52;10.88;;;7.55;;
68806;SDS011;55800;54.272;18.558;2022-09-29T05:43:51;10.95;;;6.40;;
68806;SDS011;55800;54.272;18.558;2022-09-29T05:46:23;12.25;;;7.47;;
68806;SDS011;55800;54.272;18.558;2022-09-29T05:48:51;12.48;;;8.15;;
68806;SDS011;55800;54.272;18.558;2022-09-29T05:51:22;12.82;;;7.38;;
68806;SDS011;55800;54.272;18.558;2022-09-29T05:53:52;11.38;;;7.55;;
68806;SDS011;55800;54.272;18.558;2022-09-29T05:56:22;12.02;;;7.03;;
68806;SDS011;55800;54.272;18.558;2022-09-29T05:58:52;10.85;;;7.18;;
68806;SDS011;55800;54.272;18.558;2022-09-29T06:01:24;12.10;;;6.78;;
68806;SDS011;55800;54.272;18.558;2022-09-29T06:03:54;14.30;;;7.80;;
68806;SDS011;55800;54.272;18.558;2022-09-29T06:06:24;15.00;;;7.28;;
68806;SDS011;55800;54.272;18.558;2022-09-29T06:08:55;12.02;;;7.40;;
68806;SDS011;55800;54.272;18.558;2022-09-29T06:11:26;12.93;;;7.78;;
68806;SDS011;55800;54.272;18.558;2022-09-29T06:14:00;12.65;;;8.25;;
68806;SDS011;55800;54.272;18.558;2022-09-29T06:16:29;11.93;;;8.20;;
68806;SDS011;55800;54.272;18.558;2022-09-29T06:19:00;14.32;;;6.90;;
68806;SDS011;55800;54.272;18.558;2022-09-29T06:21:31;14.75;;;7.00;;
68806;SDS011;55800;54.272;18.558;2022-09-29T06:24:01;14.30;;;8.85;;
68806;SDS011;55800;54.272;18.558;2022-09-29T06:26:32;11.00;;;6.32;;
68806;SDS011;55800;54.272;18.558;2022-09-29T06:29:03;10.98;;;6.38;;
68806;SDS011;55800;54.272;18.558;2022-09-29T06:31:33;14.68;;;8.35;;
68806;SDS011;55800;54.272;18.558;2022-09-29T06:36:33;10.63;;;6.13;;
68806;SDS011;55800;54.272;18.558;2022-09-29T06:39:23;11.38;;;6.28;;
68806;SDS011;55800;54.272;18.558;2022-09-29T06:41:52;11.43;;;6.07;;
68806;SDS011;55800;54.272;18.558;2022-09-29T06:44:25;10.93;;;5.97;;
68806;SDS011;55800;54.272;18.558;2022-09-29T06:46:56;12.23;;;7.25;;
68806;SDS011;55800;54.272;18.558;2022-09-29T06:51:54;10.33;;;6.00;;
68806;SDS011;55800;54.272;18.558;2022-09-29T06:54:24;8.15;;;5.75;;
68806;SDS011;55800;54.272;18.558;2022-09-29T06:59:22;10.43;;;6.40;;
68806;SDS011;55800;54.272;18.558;2022-09-29T07:01:53;10.10;;;6.43;;
68806;SDS011;55800;54.272;18.558;2022-09-29T07:04:22;11.55;;;6.00;;
68806;SDS011;55800;54.272;18.558;2022-09-29T07:06:52;10.60;;;5.85;;
68806;SDS011;55800;54.272;18.558;2022-09-29T07:09:21;9.27;;;5.57;;
68806;SDS011;55800;54.272;18.558;2022-09-29T07:11:50;11.35;;;5.75;;
68806;SDS011;55800;54.272;18.558;2022-09-29T07:14:20;9.50;;;5.40;;
68806;SDS011;55800;54.272;18.558;2022-09-29T07:16:52;8.27;;;4.65;;
68806;SDS011;55800;54.272;18.558;2022-09-29T07:19:21;10.65;;;4.70;;
68806;SDS011;55800;54.272;18.558;2022-09-29T07:21:51;7.85;;;4.70;;
68806;SDS011;55800;54.272;18.558;2022-09-29T07:24:20;8.35;;;4.97;;
68806;SDS011;55800;54.272;18.558;2022-09-29T07:26:50;9.60;;;5.30;;
68806;SDS011;55800;54.272;18.558;2022-09-29T07:29:19;11.02;;;5.35;;
68806;SDS011;55800;54.272;18.558;2022-09-29T07:34:21;9.82;;;5.20;;
68806;SDS011;55800;54.272;18.558;2022-09-29T07:36:50;8.35;;;4.00;;
68806;SDS011;55800;54.272;18.558;2022-09-29T07:39:19;9.30;;;4.50;;
68806;SDS011;55800;54.272;18.558;2022-09-29T07:41:49;9.40;;;5.45;;
68806;SDS011;55800;54.272;18.558;2022-09-29T07:44:18;6.68;;;3.97;;
68806;SDS011;55800;54.272;18.558;2022-09-29T07:46:47;11.32;;;5.45;;
68806;SDS011;55800;54.272;18.558;2022-09-29T07:49:17;9.02;;;4.80;;
68806;SDS011;55800;54.272;18.558;2022-09-29T07:51:47;9.68;;;5.43;;
68806;SDS011;55800;54.272;18.558;2022-09-29T07:54:17;10.82;;;5.13;;
68806;SDS011;55800;54.272;18.558;2022-09-29T07:56:49;9.50;;;4.95;;
68806;SDS011;55800;54.272;18.558;2022-09-29T07:59:18;8.55;;;4.32;;
68806;SDS011;55800;54.272;18.558;2022-09-29T08:01:47;9.40;;;4.13;;
68806;SDS011;55800;54.272;18.558;2022-09-29T08:04:16;11.60;;;5.65;;
68806;SDS011;55800;54.272;18.558;2022-09-29T08:09:16;4.85;;;2.40;;
68806;SDS011;55800;54.272;18.558;2022-09-29T08:11:47;6.10;;;3.70;;
68806;SDS011;55800;54.272;18.558;2022-09-29T08:14:32;9.35;;;5.03;;
68806;SDS011;55800;54.272;18.558;2022-09-29T08:17:01;5.80;;;2.80;;
68806;SDS011;55800;54.272;18.558;2022-09-29T08:19:30;10.20;;;4.63;;
68806;SDS011;55800;54.272;18.558;2022-09-29T08:22:01;13.07;;;5.05;;
68806;SDS011;55800;54.272;18.558;2022-09-29T08:24:30;9.65;;;5.13;;
68806;SDS011;55800;54.272;18.558;2022-09-29T08:27:01;6.50;;;3.65;;
68806;SDS011;55800;54.272;18.558;2022-09-29T08:29:44;8.88;;;4.85;;
68806;SDS011;55800;54.272;18.558;2022-09-29T08:32:13;6.63;;;2.78;;
68806;SDS011;55800;54.272;18.558;2022-09-29T08:34:42;8.50;;;4.63;;
68806;SDS011;55800;54.272;18.558;2022-09-29T08:37:13;10.35;;;5.38;;
68806;SDS011;55800;54.272;18.558;2022-09-29T08:39:43;8.82;;;5.00;;
68806;SDS011;55800;54.272;18.558;2022-09-29T08:42:14;8.90;;;5.47;;
68806;SDS011;55800;54.272;18.558;2022-09-29T08:44:51;6.38;;;3.63;;
68806;SDS011;55800;54.272;18.558;2022-09-29T08:47:41;7.35;;;4.72;;
68806;SDS011;55800;54.272;18.558;2022-09-29T08:50:16;8.90;;;4.03;;
68806;SDS011;55800;54.272;18.558;2022-09-29T08:52:54;8.70;;;4.55;;
68806;SDS011;55800;54.272;18.558;2022-09-29T08:55:30;3.65;;;2.53;;
68806;SDS011;55800;54.272;18.558;2022-09-29T08:58:08;8.63;;;3.75;;
68806;SDS011;55800;54.272;18.558;2022-09-29T09:00:42;6.93;;;3.75;;
68806;SDS011;55800;54.272;18.558;2022-09-29T09:03:35;6.45;;;3.38;;
68806;SDS011;55800;54.272;18.558;2022-09-29T09:06:21;7.38;;;3.83;;
68806;SDS011;55800;54.272;18.558;2022-09-29T09:09:05;7.07;;;3.90;;
68806;SDS011;55800;54.272;18.558;2022-09-29T09:14:53;8.23;;;4.35;;
68806;SDS011;55800;54.272;18.558;2022-09-29T09:17:38;5.55;;;3.47;;
68806;SDS011;55800;54.272;18.558;2022-09-29T09:20:25;9.27;;;4.22;;
68806;SDS011;55800;54.272;18.558;2022-09-29T09:23:00;8.23;;;3.50;;
68806;SDS011;55800;54.272;18.558;2022-09-29T09:25:38;7.70;;;4.38;;
68806;SDS011;55800;54.272;18.558;2022-09-29T09:28:13;7.45;;;4.75;;
68806;SDS011;55800;54.272;18.558;2022-09-29T09:30:46;10.27;;;6.00;;
68806;SDS011;55800;54.272;18.558;2022-09-29T09:33:21;6.47;;;4.63;;
68806;SDS011;55800;54.272;18.558;2022-09-29T09:35:59;8.05;;;4.32;;
68806;SDS011;55800;54.272;18.558;2022-09-29T09:38:44;5.53;;;2.55;;
68806;SDS011;55800;54.272;18.558;2022-09-29T09:41:18;6.70;;;3.47;;
68806;SDS011;55800;54.272;18.558;2022-09-29T09:43:52;6.30;;;2.92;;
68806;SDS011;55800;54.272;18.558;2022-09-29T09:46:25;5.32;;;3.20;;
68806;SDS011;55800;54.272;18.558;2022-09-29T09:49:01;9.15;;;3.22;;
68806;SDS011;55800;54.272;18.558;2022-09-29T09:51:41;7.90;;;3.67;;
68806;SDS011;55800;54.272;18.558;2022-09-29T09:54:19;8.38;;;3.88;;
68806;SDS011;55800;54.272;18.558;2022-09-29T09:57:02;6.63;;;2.95;;
68806;SDS011;55800;54.272;18.558;2022-09-29T10:00:02;6.93;;;4.15;;
68806;SDS011;55800;54.272;18.558;2022-09-29T10:02:42;8.55;;;5.18;;
68806;SDS011;55800;54.272;18.558;2022-09-29T10:05:13;8.75;;;5.47;;
68806;SDS011;55800;54.272;18.558;2022-09-29T10:07:43;5.03;;;2.50;;
68806;SDS011;55800;54.272;18.558;2022-09-29T10:10:16;8.27;;;4.70;;
68806;SDS011;55800;54.272;18.558;2022-09-29T10:12:51;8.35;;;5.25;;
68806;SDS011;55800;54.272;18.558;2022-09-29T10:15:27;6.65;;;4.40;;
68806;SDS011;55800;54.272;18.558;2022-09-29T10:18:03;7.57;;;3.40;;
68806;SDS011;55800;54.272;18.558;2022-09-29T10:20:38;7.10;;;4.35;;
68806;SDS011;55800;54.272;18.558;2022-09-29T10:23:28;8.45;;;5.07;;
68806;SDS011;55800;54.272;18.558;2022-09-29T10:26:03;6.85;;;4.32;;
68806;SDS011;55800;54.272;18.558;2022-09-29T10:28:42;8.63;;;4.90;;
68806;SDS011;55800;54.272;18.558;2022-09-29T10:31:19;8.60;;;5.00;;
68806;SDS011;55800;54.272;18.558;2022-09-29T10:33:52;9.27;;;4.95;;
68806;SDS011;55800;54.272;18.558;2022-09-29T10:36:24;7.05;;;4.03;;
68806;SDS011;55800;54.272;18.558;2022-09-29T10:38:56;9.18;;;5.00;;
68806;SDS011;55800;54.272;18.558;2022-09-29T10:41:29;9.80;;;5.90;;
68806;SDS011;55800;54.272;18.558;2022-09-29T10:44:21;9.68;;;4.32;;
68806;SDS011;55800;54.272;18.558;2022-09-29T10:46:51;6.00;;;3.72;;
68806;SDS011;55800;54.272;18.558;2022-09-29T10:49:23;5.65;;;3.45;;
68806;SDS011;55800;54.272;18.558;2022-09-29T10:52:04;6.15;;;3.20;;
68806;SDS011;55800;54.272;18.558;2022-09-29T10:54:51;7.90;;;4.45;;
68806;SDS011;55800;54.272;18.558;2022-09-29T10:57:23;7.78;;;4.35;;
68806;SDS011;55800;54.272;18.558;2022-09-29T10:59:57;7.10;;;3.90;;
68806;SDS011;55800;54.272;18.558;2022-09-29T11:02:28;5.13;;;2.88;;
68806;SDS011;55800;54.272;18.558;2022-09-29T11:05:01;5.30;;;2.03;;
68806;SDS011;55800;54.272;18.558;2022-09-29T11:07:42;6.43;;;3.72;;
68806;SDS011;55800;54.272;18.558;2022-09-29T11:10:25;6.85;;;3.70;;
68806;SDS011;55800;54.272;18.558;2022-09-29T11:12:55;5.90;;;3.15;;
68806;SDS011;55800;54.272;18.558;2022-09-29T11:15:28;6.55;;;3.58;;
68806;SDS011;55800;54.272;18.558;2022-09-29T11:18:16;5.63;;;2.92;;
68806;SDS011;55800;54.272;18.558;2022-09-29T11:20:48;6.38;;;3.70;;
68806;SDS011;55800;54.272;18.558;2022-09-29T11:23:29;6.18;;;3.30;;
68806;SDS011;55800;54.272;18.558;2022-09-29T11:26:04;5.65;;;3.53;;
68806;SDS011;55800;54.272;18.558;2022-09-29T11:31:34;5.93;;;3.70;;
68806;SDS011;55800;54.272;18.558;2022-09-29T11:34:17;6.65;;;3.20;;
68806;SDS011;55800;54.272;18.558;2022-09-29T11:37:13;6.95;;;3.63;;
68806;SDS011;55800;54.272;18.558;2022-09-29T11:39:52;8.70;;;3.95;;
68806;SDS011;55800;54.272;18.558;2022-09-29T11:42:38;7.93;;;4.75;;
68806;SDS011;55800;54.272;18.558;2022-09-29T11:45:19;7.35;;;3.67;;
68806;SDS011;55800;54.272;18.558;2022-09-29T11:48:01;6.50;;;3.92;;
68806;SDS011;55800;54.272;18.558;2022-09-29T11:50:48;5.30;;;2.97;;
68806;SDS011;55800;54.272;18.558;2022-09-29T11:53:32;6.28;;;3.30;;
68806;SDS011;55800;54.272;18.558;2022-09-29T11:56:17;5.68;;;3.33;;
68806;SDS011;55800;54.272;18.558;2022-09-29T11:59:01;6.22;;;4.25;;
68806;SDS011;55800;54.272;18.558;2022-09-29T12:01:47;6.70;;;3.88;;
68806;SDS011;55800;54.272;18.558;2022-09-29T12:04:31;7.07;;;3.65;;
68806;SDS011;55800;54.272;18.558;2022-09-29T12:07:14;6.38;;;3.78;;
68806;SDS011;55800;54.272;18.558;2022-09-29T12:10:17;6.72;;;4.05;;
68806;SDS011;55800;54.272;18.558;2022-09-29T12:13:12;5.60;;;3.78;;
68806;SDS011;55800;54.272;18.558;2022-09-29T12:15:50;9.77;;;4.85;;
68806;SDS011;55800;54.272;18.558;2022-09-29T12:18:24;8.65;;;4.10;;
68806;SDS011;55800;54.272;18.558;2022-09-29T12:20:59;9.00;;;4.32;;
68806;SDS011;55800;54.272;18.558;2022-09-29T12:23:30;8.68;;;4.60;;
68806;SDS011;55800;54.272;18.558;2022-09-29T12:26:04;7.88;;;4.40;;
68806;SDS011;55800;54.272;18.558;2022-09-29T12:28:39;6.88;;;4.47;;
68806;SDS011;55800;54.272;18.558;2022-09-29T12:31:14;7.50;;;4.28;;
68806;SDS011;55800;54.272;18.558;2022-09-29T12:33:50;8.35;;;4.72;;
68806;SDS011;55800;54.272;18.558;2022-09-29T12:36:28;6.68;;;4.18;;
68806;SDS011;55800;54.272;18.558;2022-09-29T12:39:17;6.47;;;4.53;;
68806;SDS011;55800;54.272;18.558;2022-09-29T12:42:00;7.78;;;4.22;;
68806;SDS011;55800;54.272;18.558;2022-09-29T12:44:45;7.13;;;3.38;;
68806;SDS011;55800;54.272;18.558;2022-09-29T12:49:56;6.95;;;3.13;;
68806;SDS011;55800;54.272;18.558;2022-09-29T12:52:36;7.00;;;3.80;;
68806;SDS011;55800;54.272;18.558;2022-09-29T12:55:14;6.97;;;3.70;;
68806;SDS011;55800;54.272;18.558;2022-09-29T12:57:51;7.50;;;3.80;;
68806;SDS011;55800;54.272;18.558;2022-09-29T13:00:23;10.85;;;4.30;;
68806;SDS011;55800;54.272;18.558;2022-09-29T13:03:00;8.75;;;5.68;;
68806;SDS011;55800;54.272;18.558;2022-09-29T13:05:56;7.32;;;4.85;;
68806;SDS011;55800;54.272;18.558;2022-09-29T13:08:51;8.60;;;4.38;;
68806;SDS011;55800;54.272;18.558;2022-09-29T13:11:50;7.78;;;3.90;;
68806;SDS011;55800;54.272;18.558;2022-09-29T13:15:00;6.80;;;3.45;;
68806;SDS011;55800;54.272;18.558;2022-09-29T13:17:52;6.50;;;3.42;;
68806;SDS011;55800;54.272;18.558;2022-09-29T13:20:50;5.37;;;3.07;;
68806;SDS011;55800;54.272;18.558;2022-09-29T13:23:38;5.43;;;3.20;;
68806;SDS011;55800;54.272;18.558;2022-09-29T13:26:34;5.25;;;3.33;;
68806;SDS011;55800;54.272;18.558;2022-09-29T13:29:29;5.82;;;3.60;;
68806;SDS011;55800;54.272;18.558;2022-09-29T13:32:07;10.18;;;4.40;;
68806;SDS011;55800;54.272;18.558;2022-09-29T13:34:38;6.28;;;3.85;;
68806;SDS011;55800;54.272;18.558;2022-09-29T13:37:14;4.53;;;2.50;;
68806;SDS011;55800;54.272;18.558;2022-09-29T13:39:51;6.78;;;2.83;;
68806;SDS011;55800;54.272;18.558;2022-09-29T13:42:37;6.78;;;3.15;;
68806;SDS011;55800;54.272;18.558;2022-09-29T13:51:27;5.88;;;2.72;;
68806;SDS011;55800;54.272;18.558;2022-09-29T13:54:30;4.80;;;2.47;;
68806;SDS011;55800;54.272;18.558;2022-09-29T14:00:10;4.20;;;2.45;;
68806;SDS011;55800;54.272;18.558;2022-09-29T14:03:03;4.28;;;2.53;;
68806;SDS011;55800;54.272;18.558;2022-09-29T14:05:45;6.53;;;2.58;;
68806;SDS011;55800;54.272;18.558;2022-09-29T14:08:50;4.40;;;2.70;;
68806;SDS011;55800;54.272;18.558;2022-09-29T14:11:23;3.85;;;2.28;;
68806;SDS011;55800;54.272;18.558;2022-09-29T14:13:59;4.97;;;2.95;;
68806;SDS011;55800;54.272;18.558;2022-09-29T14:16:35;5.25;;;2.70;;
68806;SDS011;55800;54.272;18.558;2022-09-29T14:19:21;7.30;;;2.85;;
68806;SDS011;55800;54.272;18.558;2022-09-29T14:22:02;7.13;;;3.20;;
68806;SDS011;55800;54.272;18.558;2022-09-29T14:24:45;4.47;;;2.55;;
68806;SDS011;55800;54.272;18.558;2022-09-29T14:27:27;5.00;;;2.35;;
68806;SDS011;55800;54.272;18.558;2022-09-29T14:30:05;4.95;;;2.83;;
68806;SDS011;55800;54.272;18.558;2022-09-29T14:32:46;3.92;;;2.38;;
68806;SDS011;55800;54.272;18.558;2022-09-29T14:35:22;5.95;;;2.47;;
68806;SDS011;55800;54.272;18.558;2022-09-29T14:38:00;5.20;;;2.63;;
68806;SDS011;55800;54.272;18.558;2022-09-29T14:40:32;5.70;;;3.33;;
68806;SDS011;55800;54.272;18.558;2022-09-29T14:43:12;5.28;;;2.97;;
68806;SDS011;55800;54.272;18.558;2022-09-29T14:48:56;5.50;;;3.65;;
68806;SDS011;55800;54.272;18.558;2022-09-29T14:51:53;5.82;;;3.42;;
68806;SDS011;55800;54.272;18.558;2022-09-29T14:54:31;5.80;;;3.47;;
68806;SDS011;55800;54.272;18.558;2022-09-29T14:57:13;5.60;;;3.42;;
68806;SDS011;55800;54.272;18.558;2022-09-29T15:00:07;6.82;;;3.22;;
68806;SDS011;55800;54.272;18.558;2022-09-29T15:02:44;5.70;;;3.15;;
68806;SDS011;55800;54.272;18.558;2022-09-29T15:05:32;6.18;;;3.53;;
68806;SDS011;55800;54.272;18.558;2022-09-29T15:08:02;6.30;;;3.58;;
68806;SDS011;55800;54.272;18.558;2022-09-29T15:10:53;10.45;;;4.10;;
68806;SDS011;55800;54.272;18.558;2022-09-29T15:13:24;11.55;;;5.45;;
68806;SDS011;55800;54.272;18.558;2022-09-29T15:15:59;6.47;;;4.40;;
68806;SDS011;55800;54.272;18.558;2022-09-29T15:18:39;5.63;;;3.72;;
68806;SDS011;55800;54.272;18.558;2022-09-29T15:21:26;6.10;;;3.15;;
68806;SDS011;55800;54.272;18.558;2022-09-29T15:27:00;4.95;;;2.88;;
68806;SDS011;55800;54.272;18.558;2022-09-29T15:29:30;4.55;;;3.03;;
68806;SDS011;55800;54.272;18.558;2022-09-29T15:32:00;5.20;;;2.78;;
68806;SDS011;55800;54.272;18.558;2022-09-29T15:34:32;5.57;;;3.13;;
68806;SDS011;55800;54.272;18.558;2022-09-29T15:37:06;4.70;;;2.78;;
68806;SDS011;55800;54.272;18.558;2022-09-29T15:39:42;5.35;;;2.97;;
68806;SDS011;55800;54.272;18.558;2022-09-29T15:42:15;5.53;;;2.60;;
68806;SDS011;55800;54.272;18.558;2022-09-29T15:44:51;6.78;;;4.10;;
68806;SDS011;55800;54.272;18.558;2022-09-29T15:47:26;7.00;;;4.03;;
68806;SDS011;55800;54.272;18.558;2022-09-29T15:50:04;6.60;;;3.80;;
68806;SDS011;55800;54.272;18.558;2022-09-29T15:52:44;6.53;;;3.83;;
68806;SDS011;55800;54.272;18.558;2022-09-29T15:55:14;4.97;;;3.10;;
68806;SDS011;55800;54.272;18.558;2022-09-29T15:57:45;5.47;;;3.17;;
68806;SDS011;55800;54.272;18.558;2022-09-29T16:00:42;5.68;;;3.38;;
68806;SDS011;55800;54.272;18.558;2022-09-29T16:03:13;6.75;;;3.60;;
68806;SDS011;55800;54.272;18.558;2022-09-29T16:05:55;5.82;;;3.50;;
68806;SDS011;55800;54.272;18.558;2022-09-29T16:08:32;4.78;;;3.83;;
68806;SDS011;55800;54.272;18.558;2022-09-29T16:11:13;4.57;;;2.97;;
68806;SDS011;55800;54.272;18.558;2022-09-29T16:13:49;6.10;;;3.30;;
68806;SDS011;55800;54.272;18.558;2022-09-29T16:16:25;5.30;;;3.88;;
68806;SDS011;55800;54.272;18.558;2022-09-29T16:18:58;4.57;;;2.95;;
68806;SDS011;55800;54.272;18.558;2022-09-29T16:21:37;7.03;;;3.50;;